createdAt,value
2018-07-17T00:00:34.655Z,19.25
2018-07-17T00:01:34.420Z,19.25
2018-07-17T00:02:34.666Z,19.25
2018-07-17T00:03:34.649Z,19.22
2018-07-17T00:04:34.644Z,19.16
2018-07-17T00:05:34.891Z,19.25
2018-07-17T00:06:34.890Z,19.28
2018-07-17T00:07:34.889Z,19.13
2018-07-17T00:08:34.880Z,19.16
2018-07-17T00:09:35.060Z,19.11
2018-07-17T00:10:34.876Z,19.16
2018-07-17T00:11:34.873Z,19.19
2018-07-17T00:12:34.876Z,19.14
2018-07-17T00:13:34.871Z,19.06
2018-07-17T00:14:34.863Z,19.04
2018-07-17T00:15:34.863Z,19.18
2018-07-17T00:16:34.857Z,19.06
2018-07-17T00:17:34.601Z,19.14
2018-07-17T00:18:34.855Z,19
2018-07-17T00:19:34.598Z,18.99
2018-07-17T00:20:34.855Z,18.99
2018-07-17T00:21:34.845Z,18.92
2018-07-17T00:22:34.838Z,18.92
2018-07-17T00:23:34.834Z,18.95
2018-07-17T00:24:34.832Z,18.91
2018-07-17T00:25:34.845Z,18.92
2018-07-17T00:26:34.830Z,18.9
2018-07-17T00:27:34.825Z,18.88
2018-07-17T00:28:34.817Z,18.81
2018-07-17T00:29:34.815Z,18.81
2018-07-17T00:30:34.813Z,18.78
2018-07-17T00:31:34.809Z,18.8
2018-07-17T00:32:34.554Z,18.66
2018-07-17T00:33:34.804Z,18.72
2018-07-17T00:34:34.800Z,18.75
2018-07-17T00:35:34.798Z,18.75
2018-07-17T00:36:34.793Z,18.65
2018-07-17T00:37:34.798Z,18.69
2018-07-17T00:38:34.786Z,18.66
2018-07-17T00:39:34.792Z,18.65
2018-07-17T00:40:34.780Z,18.66
2018-07-17T00:41:34.775Z,18.57
2018-07-17T00:42:34.522Z,18.58
2018-07-17T00:43:34.517Z,18.54
2018-07-17T00:44:34.765Z,18.58
2018-07-17T00:45:34.772Z,18.62
2018-07-17T00:46:34.759Z,18.54
2018-07-17T00:47:34.505Z,18.57
2018-07-17T00:48:34.756Z,18.52
2018-07-17T00:49:34.751Z,18.48
2018-07-17T00:50:34.498Z,18.54
2018-07-17T00:51:34.754Z,18.54
2018-07-17T00:52:34.741Z,18.52
2018-07-17T00:53:34.489Z,18.54
2018-07-17T00:54:34.738Z,18.52
2018-07-17T00:55:34.523Z,18.54
2018-07-17T00:56:34.732Z,18.52
2018-07-17T00:57:34.740Z,18.52
2018-07-17T00:58:34.974Z,18.51
2018-07-17T00:59:34.482Z,18.55
2018-07-17T01:00:34.718Z,18.52
2018-07-17T01:01:34.715Z,18.52
2018-07-17T01:02:34.457Z,18.52
2018-07-17T01:03:34.715Z,18.47
2018-07-17T01:04:34.707Z,18.44
2018-07-17T01:05:34.698Z,18.58
2018-07-17T01:06:34.694Z,18.52
2018-07-17T01:07:34.437Z,18.54
2018-07-17T01:08:34.684Z,18.5
2018-07-17T01:09:34.690Z,18.52
2018-07-17T01:10:34.685Z,18.52
2018-07-17T01:11:34.678Z,18.6
2018-07-17T01:12:34.677Z,18.58
2018-07-17T01:13:34.417Z,18.52
2018-07-17T01:14:34.665Z,18.6
2018-07-17T01:15:34.666Z,18.55
2018-07-17T01:16:34.664Z,18.6
2018-07-17T01:17:34.659Z,18.62
2018-07-17T01:18:34.652Z,18.67
2018-07-17T01:19:34.650Z,18.67
2018-07-17T01:20:34.644Z,18.7
2018-07-17T01:21:34.392Z,18.73
2018-07-17T01:22:34.397Z,18.8
2018-07-17T01:23:34.383Z,18.7
2018-07-17T01:24:34.630Z,18.67
2018-07-17T01:25:34.633Z,18.73
2018-07-17T01:26:34.624Z,18.73
2018-07-17T01:27:34.369Z,18.69
2018-07-17T01:28:34.621Z,18.69
2018-07-17T01:29:34.617Z,18.7
2018-07-17T01:30:34.611Z,18.66
2018-07-17T01:31:34.609Z,18.57
2018-07-17T01:32:34.607Z,18.58
2018-07-17T01:33:34.605Z,18.66
2018-07-17T01:34:34.594Z,18.66
2018-07-17T01:36:34.339Z,18.66
2018-07-17T01:37:34.336Z,18.65
2018-07-17T01:38:34.912Z,18.7
2018-07-17T01:39:34.481Z,18.75
2018-07-17T01:40:34.329Z,18.75
2018-07-17T01:41:34.575Z,18.72
2018-07-17T01:42:34.569Z,18.65
2018-07-17T01:43:34.567Z,18.75
2018-07-17T01:44:34.569Z,18.78
2018-07-17T01:45:34.307Z,18.76
2018-07-17T01:46:34.557Z,18.8
2018-07-17T01:47:34.565Z,18.8
2018-07-17T01:48:34.549Z,18.78
2018-07-17T01:49:34.293Z,18.73
2018-07-17T01:50:34.543Z,18.75
2018-07-17T01:51:36.827Z,18.72
2018-07-17T01:52:34.534Z,18.78
2018-07-17T01:53:34.533Z,18.66
2018-07-17T01:54:34.529Z,18.69
2018-07-17T01:55:34.526Z,18.8
2018-07-17T01:56:34.283Z,18.78
2018-07-17T01:57:34.516Z,18.76
2018-07-17T01:58:34.262Z,18.69
2018-07-17T01:59:34.511Z,18.78
2018-07-17T02:00:34.262Z,18.82
2018-07-17T02:01:34.253Z,18.72
2018-07-17T02:02:34.254Z,18.76
2018-07-17T02:03:34.500Z,18.8
2018-07-17T02:04:34.242Z,18.81
2018-07-17T02:05:34.238Z,18.84
2018-07-17T02:06:34.491Z,18.72
2018-07-17T02:07:34.235Z,18.82
2018-07-17T02:08:34.480Z,18.85
2018-07-17T02:09:34.476Z,18.85
2018-07-17T02:10:34.472Z,18.82
2018-07-17T02:11:34.470Z,18.84
2018-07-17T02:12:34.468Z,18.81
2018-07-17T02:13:34.464Z,18.78
2018-07-17T02:14:34.207Z,18.82
2018-07-17T02:15:34.203Z,18.8
2018-07-17T02:16:34.465Z,18.78
2018-07-17T02:17:34.450Z,18.81
2018-07-17T02:18:34.445Z,18.81
2018-07-17T02:19:34.444Z,18.87
2018-07-17T02:20:34.186Z,18.91
2018-07-17T02:21:34.436Z,18.94
2018-07-17T02:22:34.183Z,18.92
2018-07-17T02:23:33.925Z,18.98
2018-07-17T02:24:34.432Z,18.88
2018-07-17T02:25:34.425Z,18.95
2018-07-17T02:26:34.724Z,18.98
2018-07-17T02:27:34.164Z,19.02
2018-07-17T02:28:34.164Z,18.99
2018-07-17T02:29:34.408Z,19.06
2018-07-17T02:30:34.408Z,18.99
2018-07-17T02:31:34.404Z,19.06
2018-07-17T02:32:34.397Z,19.08
2018-07-17T02:33:34.401Z,19.13
2018-07-17T02:34:34.399Z,19.08
2018-07-17T02:35:34.386Z,19.18
2018-07-17T02:36:34.390Z,19.18
2018-07-17T02:37:34.388Z,19.13
2018-07-17T02:38:34.381Z,19.13
2018-07-17T02:39:34.386Z,19.18
2018-07-17T02:40:34.374Z,19.26
2018-07-17T02:41:34.123Z,19.25
2018-07-17T02:42:34.124Z,19.19
2018-07-17T02:43:34.116Z,19.19
2018-07-17T02:44:34.115Z,19.23
2018-07-17T02:45:34.364Z,19.28
2018-07-17T02:46:34.354Z,19.32
2018-07-17T02:47:34.356Z,19.29
2018-07-17T02:48:34.370Z,19.28
2018-07-17T02:49:34.357Z,19.19
2018-07-17T02:50:34.344Z,19.26
2018-07-17T02:51:34.338Z,19.25
2018-07-17T02:52:34.078Z,19.28
2018-07-17T02:53:34.327Z,19.19
2018-07-17T02:54:34.329Z,19.31
2018-07-17T02:55:34.325Z,19.26
2018-07-17T02:56:34.319Z,19.28
2018-07-17T02:57:34.319Z,19.25
2018-07-17T02:58:34.329Z,19.31
2018-07-17T02:59:34.309Z,19.31
2018-07-17T03:00:34.306Z,19.31
2018-07-17T03:01:34.307Z,19.29
2018-07-17T03:02:34.301Z,19.25
2018-07-17T03:03:34.330Z,19.31
2018-07-17T03:04:34.307Z,19.33
2018-07-17T03:05:34.290Z,19.37
2018-07-17T03:06:34.293Z,19.37
2018-07-17T03:07:34.285Z,19.32
2018-07-17T03:08:34.286Z,19.36
2018-07-17T03:09:34.292Z,19.44
2018-07-17T03:10:34.295Z,19.4
2018-07-17T03:11:34.278Z,19.44
2018-07-17T03:12:34.280Z,19.4
2018-07-17T03:13:34.266Z,19.47
2018-07-17T03:14:34.269Z,19.5
2018-07-17T03:15:34.268Z,19.55
2018-07-17T03:16:34.266Z,19.54
2018-07-17T03:17:34.254Z,19.51
2018-07-17T03:18:34.262Z,19.48
2018-07-17T03:19:34.249Z,19.56
2018-07-17T03:20:33.992Z,19.56
2018-07-17T03:21:33.991Z,19.58
2018-07-17T03:22:33.991Z,19.63
2018-07-17T03:23:34.233Z,19.63
2018-07-17T03:24:34.494Z,19.65
2018-07-17T03:25:33.725Z,19.61
2018-07-17T03:26:33.974Z,19.63
2018-07-17T03:27:34.238Z,19.71
2018-07-17T03:28:34.220Z,19.65
2018-07-17T03:29:34.218Z,19.77
2018-07-17T03:30:33.963Z,19.8
2018-07-17T03:31:34.213Z,19.68
2018-07-17T03:32:34.205Z,19.69
2018-07-17T03:33:34.203Z,19.74
2018-07-17T03:34:33.955Z,19.73
2018-07-17T03:35:34.198Z,19.8
2018-07-17T03:36:34.194Z,19.77
2018-07-17T03:37:34.193Z,19.76
2018-07-17T03:38:34.187Z,19.74
2018-07-17T03:39:34.197Z,19.78
2018-07-17T03:40:33.933Z,19.8
2018-07-17T03:41:34.182Z,19.87
2018-07-17T03:42:33.926Z,19.86
2018-07-17T03:43:34.180Z,19.94
2018-07-17T03:44:34.173Z,19.99
2018-07-17T03:45:34.233Z,19.95
2018-07-17T03:46:34.168Z,19.98
2018-07-17T03:47:34.165Z,19.87
2018-07-17T03:48:34.212Z,19.98
2018-07-17T03:49:33.905Z,20.08
2018-07-17T03:50:34.155Z,20.01
2018-07-17T03:51:34.152Z,20.01
2018-07-17T03:52:34.160Z,20.05
2018-07-17T03:53:33.895Z,20.11
2018-07-17T03:54:33.891Z,20.17
2018-07-17T03:55:34.154Z,20.05
2018-07-17T03:56:34.137Z,20.18
2018-07-17T03:57:34.136Z,20.23
2018-07-17T03:58:34.133Z,20.35
2018-07-17T03:59:34.128Z,20.29
2018-07-17T04:00:34.130Z,20.41
2018-07-17T04:01:34.128Z,20.41
2018-07-17T04:02:34.124Z,20.55
2018-07-17T04:03:34.137Z,20.54
2018-07-17T04:04:33.865Z,20.59
2018-07-17T04:05:34.367Z,20.67
2018-07-17T04:06:34.165Z,20.76
2018-07-17T04:07:34.111Z,20.82
2018-07-17T04:08:33.902Z,20.8
2018-07-17T04:09:34.111Z,20.82
2018-07-17T04:10:34.120Z,20.89
2018-07-17T04:11:34.102Z,20.98
2018-07-17T04:12:34.100Z,20.98
2018-07-17T04:13:34.428Z,21.07
2018-07-17T04:14:34.095Z,21.09
2018-07-17T04:15:34.093Z,21.12
2018-07-17T04:16:34.094Z,21.14
2018-07-17T04:17:33.835Z,21.28
2018-07-17T04:18:33.841Z,21.19
2018-07-17T04:19:33.831Z,21.35
2018-07-17T04:20:34.082Z,21.34
2018-07-17T04:21:34.089Z,21.38
2018-07-17T04:22:34.079Z,21.46
2018-07-17T04:23:34.076Z,21.5
2018-07-17T04:24:33.823Z,21.53
2018-07-17T04:25:33.819Z,21.59
2018-07-17T04:26:33.820Z,21.64
2018-07-17T04:27:33.814Z,21.67
2018-07-17T04:28:34.064Z,21.67
2018-07-17T04:29:33.811Z,21.77
2018-07-17T04:30:33.812Z,21.72
2018-07-17T04:31:34.083Z,21.82
2018-07-17T04:32:34.057Z,21.86
2018-07-17T04:33:34.061Z,21.84
2018-07-17T04:34:33.807Z,21.91
2018-07-17T04:35:34.053Z,21.96
2018-07-17T04:36:34.049Z,21.91
2018-07-17T04:37:33.796Z,21.88
2018-07-17T04:38:34.385Z,21.92
2018-07-17T04:39:34.046Z,21.91
2018-07-17T04:40:34.048Z,21.92
2018-07-17T04:41:33.790Z,21.98
2018-07-17T04:42:34.040Z,22.05
2018-07-17T04:43:33.787Z,21.99
2018-07-17T04:44:33.792Z,22.1
2018-07-17T04:45:33.783Z,22.05
2018-07-17T04:46:33.784Z,22.06
2018-07-17T04:47:34.035Z,22.06
2018-07-17T04:48:34.030Z,22.02
2018-07-17T04:49:34.032Z,22.07
2018-07-17T04:50:34.029Z,22.12
2018-07-17T04:51:34.029Z,22.07
2018-07-17T04:52:34.023Z,22.14
2018-07-17T04:53:34.023Z,22.12
2018-07-17T04:54:34.025Z,22.22
2018-07-17T04:55:34.018Z,22.22
2018-07-17T04:56:34.026Z,22.24
2018-07-17T04:57:34.015Z,22.18
2018-07-17T04:58:34.017Z,22.25
2018-07-17T04:59:34.013Z,22.21
2018-07-17T05:00:34.012Z,22.33
2018-07-17T05:01:34.100Z,22.33
2018-07-17T05:02:34.014Z,22.35
2018-07-17T05:03:34.018Z,22.35
2018-07-17T05:04:34.010Z,22.36
2018-07-17T05:05:34.009Z,22.37
2018-07-17T05:06:34.003Z,22.51
2018-07-17T05:07:34.252Z,22.43
2018-07-17T05:08:34.003Z,22.43
2018-07-17T05:09:34.009Z,22.51
2018-07-17T05:10:34.001Z,22.58
2018-07-17T05:11:33.751Z,22.54
2018-07-17T05:12:33.994Z,22.47
2018-07-17T05:13:34.000Z,22.57
2018-07-17T05:14:33.990Z,22.6
2018-07-17T05:15:34.008Z,22.64
2018-07-17T05:16:33.914Z,22.72
2018-07-17T05:17:33.987Z,22.68
2018-07-17T05:18:33.750Z,22.8
2018-07-17T05:19:33.737Z,22.9
2018-07-17T05:20:33.983Z,22.85
2018-07-17T05:21:34.026Z,22.85
2018-07-17T05:22:33.990Z,22.83
2018-07-17T05:23:33.983Z,22.98
2018-07-17T05:24:33.979Z,23
2018-07-17T05:25:33.977Z,23.05
2018-07-17T05:26:33.988Z,23.12
2018-07-17T05:27:33.975Z,23.19
2018-07-17T05:28:33.974Z,23.23
2018-07-17T05:29:33.973Z,23.33
2018-07-17T05:30:33.978Z,23.53
2018-07-17T05:31:33.979Z,23.58
2018-07-17T05:32:33.974Z,23.8
2018-07-17T05:33:33.968Z,23.94
2018-07-17T05:34:33.984Z,24.12
2018-07-17T05:35:34.249Z,24.27
2018-07-17T05:36:34.064Z,24.47
2018-07-17T05:37:34.079Z,24.73
2018-07-17T05:38:33.969Z,24.85
2018-07-17T05:39:33.971Z,25.08
2018-07-17T05:40:33.974Z,25.28
2018-07-17T05:41:33.978Z,25.45
2018-07-17T05:42:33.975Z,25.67
2018-07-17T05:43:33.986Z,25.79
2018-07-17T05:44:33.980Z,26.05
2018-07-17T05:45:33.978Z,26.17
2018-07-17T05:46:34.342Z,26.4
2018-07-17T05:47:33.985Z,26.67
2018-07-17T05:48:33.996Z,26.84
2018-07-17T05:49:33.992Z,27.1
2018-07-17T05:50:34.008Z,27.31
2018-07-17T05:51:34.017Z,27.55
2018-07-17T05:52:34.023Z,27.77
2018-07-17T05:53:34.002Z,27.99
2018-07-17T05:54:34.004Z,28.24
2018-07-17T05:55:34.025Z,28.43
2018-07-17T05:56:34.012Z,28.61
2018-07-17T05:57:34.016Z,28.83
2018-07-17T05:58:33.770Z,28.93
2018-07-17T05:59:34.032Z,29.06
2018-07-17T06:00:34.032Z,29.15
2018-07-17T06:01:34.039Z,29.28
2018-07-17T06:02:34.047Z,29.43
2018-07-17T06:03:33.916Z,29.46
2018-07-17T06:04:33.549Z,29.37
2018-07-17T06:05:34.057Z,29.33
2018-07-17T06:06:34.067Z,29.34
2018-07-17T06:07:33.569Z,29.42
2018-07-17T06:08:33.824Z,29.71
2018-07-17T06:09:34.084Z,29.67
2018-07-17T06:10:33.836Z,29.73
2018-07-17T06:11:34.125Z,29.85
2018-07-17T06:12:34.107Z,30.02
2018-07-17T06:13:33.863Z,30.08
2018-07-17T06:14:34.117Z,29.95
2018-07-17T06:15:34.122Z,29.87
2018-07-17T06:16:34.126Z,29.67
2018-07-17T06:17:34.137Z,29.58
2018-07-17T06:18:34.140Z,29.51
2018-07-17T06:19:34.152Z,29.41
2018-07-17T06:20:34.169Z,29.45
2018-07-17T06:21:34.165Z,29.42
2018-07-17T06:22:34.216Z,29.27
2018-07-17T06:23:34.175Z,29.16
2018-07-17T06:24:34.184Z,28.95
2018-07-17T06:25:33.935Z,29.02
2018-07-17T06:26:34.198Z,29.04
2018-07-17T06:27:34.202Z,29.06
2018-07-17T06:28:34.206Z,29.23
2018-07-17T06:29:34.215Z,29.31
2018-07-17T06:30:34.218Z,29.45
2018-07-17T06:31:34.227Z,29.63
2018-07-17T06:32:34.234Z,29.67
2018-07-17T06:33:34.246Z,29.76
2018-07-17T06:34:34.244Z,29.76
2018-07-17T06:35:34.263Z,29.8
2018-07-17T06:36:34.257Z,29.87
2018-07-17T06:37:34.029Z,29.95
2018-07-17T06:38:34.268Z,29.95
2018-07-17T06:39:34.276Z,30.04
2018-07-17T06:40:34.032Z,29.94
2018-07-17T06:41:34.289Z,29.92
2018-07-17T06:42:34.295Z,29.83
2018-07-17T06:43:34.306Z,29.73
2018-07-17T06:44:34.403Z,29.57
2018-07-17T06:45:34.322Z,29.46
2018-07-17T06:46:34.349Z,29.36
2018-07-17T06:47:34.333Z,29.45
2018-07-17T06:48:34.334Z,29.48
2018-07-17T06:49:34.087Z,29.61
2018-07-17T06:50:34.951Z,29.7
2018-07-17T06:51:34.130Z,29.83
2018-07-17T06:52:34.375Z,29.95
2018-07-17T06:53:34.365Z,29.92
2018-07-17T06:54:34.371Z,29.94
2018-07-17T06:55:34.379Z,29.73
2018-07-17T06:56:34.405Z,29.82
2018-07-17T06:57:34.483Z,29.87
2018-07-17T06:58:34.401Z,29.82
2018-07-17T06:59:34.410Z,29.87
2018-07-17T07:00:34.161Z,30.07
2018-07-17T07:01:34.419Z,30.05
2018-07-17T07:02:34.428Z,30.27
2018-07-17T07:03:34.454Z,30.39
2018-07-17T07:04:34.442Z,30.7
2018-07-17T07:05:34.459Z,30.98
2018-07-17T07:06:34.462Z,31.17
2018-07-17T07:07:34.469Z,31.44
2018-07-17T07:08:34.474Z,31.76
2018-07-17T07:09:34.494Z,31.92
2018-07-17T07:10:34.240Z,32.19
2018-07-17T07:11:34.496Z,32.43
2018-07-17T07:12:34.768Z,32.52
2018-07-17T07:13:34.513Z,32.5
2018-07-17T07:14:34.527Z,32.59
2018-07-17T07:15:34.534Z,32.56
2018-07-17T07:16:34.292Z,32.6
2018-07-17T07:17:34.557Z,32.67
2018-07-17T07:18:34.587Z,32.72
2018-07-17T07:19:34.580Z,32.69
2018-07-17T07:20:34.576Z,32.79
2018-07-17T07:21:34.590Z,32.97
2018-07-17T07:22:34.347Z,33.14
2018-07-17T07:23:34.360Z,33.31
2018-07-17T07:24:34.630Z,33.51
2018-07-17T07:25:34.382Z,33.66
2018-07-17T07:26:34.643Z,33.84
2018-07-17T07:27:34.649Z,33.97
2018-07-17T07:28:34.654Z,34.13
2018-07-17T07:29:34.415Z,34.28
2018-07-17T07:30:34.422Z,34.24
2018-07-17T07:31:34.685Z,34.37
2018-07-17T07:32:34.444Z,34.35
2018-07-17T07:33:34.451Z,34.34
2018-07-17T07:34:34.743Z,34.17
2018-07-17T07:35:34.737Z,34.03
2018-07-17T07:36:34.752Z,33.94
2018-07-17T07:37:34.751Z,33.82
2018-07-17T07:38:34.521Z,33.81
2018-07-17T07:39:34.510Z,33.78
2018-07-17T07:40:34.526Z,33.81
2018-07-17T07:41:34.787Z,33.88
2018-07-17T07:42:34.577Z,33.91
2018-07-17T07:43:35.064Z,33.95
2018-07-17T07:44:34.592Z,34.08
2018-07-17T07:45:34.827Z,34.22
2018-07-17T07:46:34.345Z,34.34
2018-07-17T07:47:34.598Z,34.4
2018-07-17T07:48:34.898Z,34.4
2018-07-17T07:49:34.408Z,34.34
2018-07-17T07:50:34.642Z,34.24
2018-07-17T07:51:34.656Z,34.19
2018-07-17T07:52:34.924Z,34.21
2018-07-17T07:53:34.930Z,34.24
2018-07-17T07:54:34.944Z,34.34
2018-07-17T07:55:35.130Z,34.25
2018-07-17T07:56:34.700Z,34.21
2018-07-17T07:57:34.965Z,34.09
2018-07-17T07:58:34.735Z,33.95
2018-07-17T07:59:34.992Z,33.97
2018-07-17T08:00:35.005Z,33.82
2018-07-17T08:01:34.765Z,33.75
2018-07-17T08:02:35.019Z,33.6
2018-07-17T08:03:35.236Z,33.53
2018-07-17T08:04:34.541Z,33.42
2018-07-17T08:05:35.076Z,33.5
2018-07-17T08:06:35.069Z,33.38
2018-07-17T08:07:35.082Z,33.19
2018-07-17T08:08:35.109Z,33.06
2018-07-17T08:09:36.128Z,33.09
2018-07-17T08:11:35.245Z,32.77
2018-07-17T08:12:34.913Z,32.85
2018-07-17T08:13:35.155Z,32.94
2018-07-17T08:14:35.421Z,32.92
2018-07-17T08:15:35.179Z,33.07
2018-07-17T08:16:35.192Z,33.37
2018-07-17T08:17:35.198Z,33.71
2018-07-17T08:18:35.219Z,34.06
2018-07-17T08:19:35.219Z,34.54
2018-07-17T08:20:35.016Z,34.96
2018-07-17T08:21:35.265Z,35.23
2018-07-17T08:22:35.277Z,35.71
2018-07-17T08:23:35.276Z,35.82
2018-07-17T08:24:35.302Z,36.07
2018-07-17T08:25:35.326Z,36.03
2018-07-17T08:26:35.338Z,36.05
2018-07-17T08:27:35.332Z,35.82
2018-07-17T08:28:35.349Z,35.65
2018-07-17T08:29:35.509Z,35.59
2018-07-17T08:30:35.372Z,35.68
2018-07-17T08:31:35.393Z,35.87
2018-07-17T08:32:35.401Z,35.68
2018-07-17T08:33:35.180Z,35.48
2018-07-17T08:34:35.434Z,35.38
2018-07-17T08:35:35.459Z,35.36
2018-07-17T08:36:35.464Z,35.38
2018-07-17T08:37:35.239Z,35.33
2018-07-17T08:38:35.492Z,35.11
2018-07-17T08:39:35.497Z,34.85
2018-07-17T08:40:35.265Z,34.49
2018-07-17T08:41:35.526Z,34.32
2018-07-17T08:42:35.563Z,34.28
2018-07-17T08:43:35.956Z,34.17
2018-07-17T08:44:35.315Z,34.13
2018-07-17T08:45:35.595Z,34.19
2018-07-17T08:46:35.639Z,34.37
2018-07-17T08:47:35.365Z,34.53
2018-07-17T08:48:35.370Z,34.53
2018-07-17T08:49:35.632Z,34.58
2018-07-17T08:50:35.412Z,34.69
2018-07-17T08:51:35.711Z,34.62
2018-07-17T08:52:35.674Z,34.66
2018-07-17T08:53:35.682Z,34.43
2018-07-17T08:54:35.951Z,34.21
2018-07-17T08:55:35.713Z,34.02
2018-07-17T08:56:35.723Z,33.84
2018-07-17T08:57:35.744Z,33.63
2018-07-17T08:58:35.756Z,33.51
2018-07-17T08:59:35.809Z,33.41
2018-07-17T09:00:35.786Z,33.29
2018-07-17T09:01:35.798Z,33.03
2018-07-17T09:02:35.817Z,32.81
2018-07-17T09:03:35.820Z,32.57
2018-07-17T09:04:35.596Z,32.37
2018-07-17T09:05:35.594Z,32.08
2018-07-17T09:06:35.602Z,31.86
2018-07-17T09:07:35.865Z,31.54
2018-07-17T09:08:35.876Z,31.41
2018-07-17T09:09:35.889Z,31.21
2018-07-17T09:10:35.914Z,31.28
2018-07-17T09:11:35.909Z,31.13
2018-07-17T09:12:35.930Z,31.02
2018-07-17T09:13:35.945Z,30.91
2018-07-17T09:14:35.935Z,30.79
2018-07-17T09:15:35.954Z,30.57
2018-07-17T09:16:35.955Z,30.43
2018-07-17T09:17:35.464Z,30.15
2018-07-17T09:18:35.721Z,30.05
2018-07-17T09:19:35.730Z,29.79
2018-07-17T09:20:36.008Z,29.64
2018-07-17T09:21:35.863Z,29.67
2018-07-17T09:22:36.005Z,29.63
2018-07-17T09:23:35.775Z,29.71
2018-07-17T09:24:36.030Z,29.63
2018-07-17T09:25:36.034Z,29.58
2018-07-17T09:26:36.098Z,29.58
2018-07-17T09:27:35.798Z,29.43
2018-07-17T09:28:35.798Z,29.33
2018-07-17T09:29:36.063Z,29.12
2018-07-17T09:30:36.064Z,29.11
2018-07-17T09:31:36.077Z,28.98
2018-07-17T09:32:35.828Z,28.88
2018-07-17T09:33:36.196Z,28.85
2018-07-17T09:34:36.095Z,28.61
2018-07-17T09:35:36.116Z,28.43
2018-07-17T09:36:36.111Z,28.37
2018-07-17T09:37:36.114Z,28.39
2018-07-17T09:38:35.875Z,28.55
2018-07-17T09:39:36.141Z,28.51
2018-07-17T09:40:36.145Z,28.58
2018-07-17T09:41:35.877Z,28.51
2018-07-17T09:42:35.884Z,28.25
2018-07-17T09:43:35.897Z,28.18
2018-07-17T09:44:36.169Z,28.17
2018-07-17T09:45:36.150Z,28.06
2018-07-17T09:46:36.155Z,27.97
2018-07-17T09:47:36.406Z,28
2018-07-17T09:48:36.160Z,28.06
2018-07-17T09:49:36.181Z,27.88
2018-07-17T09:50:35.921Z,27.81
2018-07-17T09:51:36.179Z,27.84
2018-07-17T09:52:36.176Z,27.88
2018-07-17T09:53:36.185Z,27.85
2018-07-17T09:54:35.938Z,27.9
2018-07-17T09:55:36.190Z,27.88
2018-07-17T09:56:36.203Z,27.92
2018-07-17T09:57:36.222Z,27.97
2018-07-17T09:58:36.200Z,27.92
2018-07-17T09:59:36.208Z,27.84
2018-07-17T10:00:35.967Z,27.87
2018-07-17T10:01:35.965Z,27.87
2018-07-17T10:02:36.225Z,27.84
2018-07-17T10:03:36.223Z,27.85
2018-07-17T10:04:36.238Z,27.97
2018-07-17T10:05:36.232Z,27.96
2018-07-17T10:06:36.261Z,28.02
2018-07-17T10:07:35.995Z,28.11
2018-07-17T10:08:36.266Z,28.15
2018-07-17T10:09:36.461Z,28.07
2018-07-17T10:10:36.000Z,28.12
2018-07-17T10:11:36.250Z,28.02
2018-07-17T10:12:36.019Z,28.04
2018-07-17T10:13:36.268Z,28.04
2018-07-17T10:14:36.468Z,28.11
2018-07-17T10:15:36.280Z,28.07
2018-07-17T10:16:36.273Z,28.15
2018-07-17T10:17:36.275Z,28.14
2018-07-17T10:18:36.281Z,28.06
2018-07-17T10:19:36.309Z,28.11
2018-07-17T10:20:36.055Z,28.07
2018-07-17T10:21:36.289Z,28.12
2018-07-17T10:22:36.297Z,28.12
2018-07-17T10:23:36.049Z,28.12
2018-07-17T10:24:36.051Z,28.21
2018-07-17T10:25:36.313Z,28.22
2018-07-17T10:26:36.446Z,28.14
2018-07-17T10:27:36.060Z,28.21
2018-07-17T10:28:36.082Z,28.3
2018-07-17T10:29:36.328Z,28.31
2018-07-17T10:30:36.073Z,28.3
2018-07-17T10:31:36.332Z,28.33
2018-07-17T10:32:36.335Z,28.43
2018-07-17T10:33:36.354Z,28.37
2018-07-17T10:34:36.341Z,28.37
2018-07-17T10:35:36.347Z,28.41
2018-07-17T10:36:35.855Z,28.31
2018-07-17T10:37:36.362Z,28.17
2018-07-17T10:38:36.513Z,28.14
2018-07-17T10:39:36.421Z,28.07
2018-07-17T10:40:36.367Z,28.11
2018-07-17T10:41:36.392Z,28.17
2018-07-17T10:42:36.380Z,28.18
2018-07-17T10:43:36.379Z,28.17
2018-07-17T10:44:36.378Z,28.22
2018-07-17T10:45:36.432Z,28.17
2018-07-17T10:46:36.384Z,28.19
2018-07-17T10:47:36.548Z,28.11
2018-07-17T10:48:36.417Z,28.11
2018-07-17T10:49:36.396Z,28.12
2018-07-17T10:50:36.401Z,28.14
2018-07-17T10:51:36.408Z,28.24
2018-07-17T10:52:36.160Z,28.22
2018-07-17T10:53:36.413Z,28.37
2018-07-17T10:54:36.170Z,28.39
2018-07-17T10:55:36.172Z,28.36
2018-07-17T10:56:36.172Z,28.34
2018-07-17T10:57:36.432Z,28.52
2018-07-17T10:58:36.210Z,28.44
2018-07-17T10:59:36.459Z,28.51
2018-07-17T11:00:36.201Z,28.64
2018-07-17T11:01:36.196Z,28.66
2018-07-17T11:02:36.447Z,28.68
2018-07-17T11:03:36.457Z,28.76
2018-07-17T11:04:36.458Z,28.88
2018-07-17T11:05:36.456Z,28.89
2018-07-17T11:06:36.466Z,28.88
2018-07-17T11:07:36.471Z,28.92
2018-07-17T11:08:36.744Z,29.05
2018-07-17T11:09:36.473Z,29.16
2018-07-17T11:10:36.502Z,29.28
2018-07-17T11:11:36.483Z,29.36
2018-07-17T11:12:36.238Z,29.53
2018-07-17T11:13:36.500Z,29.55
2018-07-17T11:14:36.510Z,29.48
2018-07-17T11:15:36.499Z,29.49
2018-07-17T11:16:36.512Z,29.42
2018-07-17T11:17:36.260Z,29.39
2018-07-17T11:18:36.529Z,29.33
2018-07-17T11:19:36.527Z,29.14
2018-07-17T11:20:36.523Z,29.14
2018-07-17T11:21:36.541Z,28.88
2018-07-17T11:22:36.546Z,28.85
2018-07-17T11:23:36.546Z,28.89
2018-07-17T11:24:36.548Z,28.93
2018-07-17T11:25:36.582Z,28.93
2018-07-17T11:26:36.556Z,29.05
2018-07-17T11:27:36.577Z,29.09
2018-07-17T11:28:36.555Z,28.92
2018-07-17T11:29:36.574Z,28.81
2018-07-17T11:30:36.319Z,28.88
2018-07-17T11:31:36.588Z,28.86
2018-07-17T11:32:36.596Z,28.92
2018-07-17T11:33:36.326Z,28.93
2018-07-17T11:34:36.346Z,28.96
2018-07-17T11:35:36.806Z,29
2018-07-17T11:36:36.592Z,29.09
2018-07-17T11:37:36.609Z,29.15
2018-07-17T11:38:36.426Z,29.23
2018-07-17T11:39:36.606Z,29.19
2018-07-17T11:40:36.610Z,29.21
2018-07-17T11:41:36.624Z,29.3
2018-07-17T11:42:36.622Z,29.37
2018-07-17T11:43:36.624Z,29.41
2018-07-17T11:44:36.630Z,29.37
2018-07-17T11:45:36.730Z,29.41
2018-07-17T11:46:36.643Z,29.46
2018-07-17T11:47:36.646Z,29.58
2018-07-17T11:48:36.660Z,29.46
2018-07-17T11:49:36.653Z,29.39
2018-07-17T11:50:36.407Z,29.33
2018-07-17T11:51:36.658Z,29.28
2018-07-17T11:52:36.670Z,29.37
2018-07-17T11:53:36.427Z,29.3
2018-07-17T11:54:36.675Z,29.3
2018-07-17T11:55:36.693Z,29.33
2018-07-17T11:56:36.432Z,29.37
2018-07-17T11:57:36.446Z,29.57
2018-07-17T11:58:36.442Z,29.63
2018-07-17T11:59:36.978Z,29.68
2018-07-17T12:00:36.718Z,29.83
2018-07-17T12:01:36.712Z,29.92
2018-07-17T12:02:36.484Z,29.98
2018-07-17T12:03:36.716Z,30.08
2018-07-17T12:04:36.734Z,30.08
2018-07-17T12:05:36.798Z,30.35
2018-07-17T12:06:36.749Z,30.43
2018-07-17T12:07:36.779Z,30.47
2018-07-17T12:08:36.764Z,30.55
2018-07-17T12:09:36.760Z,30.53
2018-07-17T12:10:36.755Z,30.58
2018-07-17T12:11:36.505Z,30.58
2018-07-17T12:12:36.845Z,30.53
2018-07-17T12:13:36.833Z,30.39
2018-07-17T12:14:36.797Z,30.29
2018-07-17T12:15:36.792Z,30.27
2018-07-17T12:16:36.786Z,30.23
2018-07-17T12:17:36.800Z,30.32
2018-07-17T12:18:36.805Z,30.31
2018-07-17T12:19:36.801Z,30.37
2018-07-17T12:20:36.990Z,30.45
2018-07-17T12:21:36.821Z,30.47
2018-07-17T12:22:36.815Z,30.51
2018-07-17T12:23:37.072Z,30.58
2018-07-17T12:24:36.851Z,30.67
2018-07-17T12:25:36.833Z,30.83
2018-07-17T12:26:36.850Z,31.07
2018-07-17T12:27:36.596Z,31.21
2018-07-17T12:28:36.614Z,31.31
2018-07-17T12:29:36.638Z,31.23
2018-07-17T12:30:36.866Z,31.44
2018-07-17T12:31:36.876Z,31.51
2018-07-17T12:32:36.624Z,31.63
2018-07-17T12:33:36.379Z,31.7
2018-07-17T12:34:36.887Z,31.85
2018-07-17T12:35:36.927Z,31.96
2018-07-17T12:36:36.710Z,32.04
2018-07-17T12:37:36.662Z,32.01
2018-07-17T12:38:36.664Z,32.04
2018-07-17T12:39:36.945Z,31.89
2018-07-17T12:40:36.949Z,32.01
2018-07-17T12:41:36.937Z,32
2018-07-17T12:42:36.942Z,31.99
2018-07-17T12:43:36.726Z,31.84
2018-07-17T12:44:36.959Z,31.8
2018-07-17T12:45:36.991Z,31.84
2018-07-17T12:46:36.978Z,31.99
2018-07-17T12:47:36.739Z,32.03
2018-07-17T12:48:37.055Z,32.21
2018-07-17T12:49:37.044Z,32.26
2018-07-17T12:50:37.014Z,32.52
2018-07-17T12:51:37.014Z,32.66
2018-07-17T12:52:37.020Z,32.88
2018-07-17T12:53:37.021Z,33.03
2018-07-17T12:54:37.332Z,33.04
2018-07-17T12:55:37.039Z,33.09
2018-07-17T12:56:37.045Z,33.14